createdAt,value
2023-11-20T00:01:47.875Z,100
2023-11-20T00:06:47.890Z,100
2023-11-20T00:11:47.864Z,100
2023-11-20T00:16:47.908Z,100
2023-11-20T00:21:47.952Z,100
2023-11-20T00:26:48.118Z,100
2023-11-20T00:31:47.914Z,100
2023-11-20T00:36:48.056Z,100
2023-11-20T00:41:47.848Z,100
2023-11-20T00:46:47.914Z,100
2023-11-20T00:51:47.836Z,100
2023-11-20T00:56:47.857Z,100
2023-11-20T01:01:48.073Z,100
2023-11-20T01:06:48.681Z,100
2023-11-20T01:11:49.662Z,100
2023-11-20T01:16:47.871Z,100
2023-11-20T01:21:47.917Z,100
2023-11-20T01:26:47.852Z,100
2023-11-20T01:31:47.919Z,100
2023-11-20T01:36:48.112Z,100
2023-11-20T01:41:47.866Z,100
2023-11-20T01:46:47.959Z,100
2023-11-20T01:51:48.027Z,100
2023-11-20T01:56:48.291Z,100
2023-11-20T02:01:48.149Z,100
2023-11-20T02:06:48.151Z,100
2023-11-20T02:11:48.341Z,100
2023-11-20T02:16:47.978Z,100
2023-11-20T02:21:48.447Z,100
2023-11-20T02:27:05.163Z,100
2023-11-20T02:31:48.015Z,100
2023-11-20T02:36:47.994Z,100
2023-11-20T02:41:47.970Z,100
2023-11-20T02:46:48.153Z,100
2023-11-20T02:51:47.955Z,100
2023-11-20T02:56:48.188Z,100
2023-11-20T03:01:49.894Z,100
2023-11-20T03:06:47.985Z,100
2023-11-20T03:11:48.086Z,100
2023-11-20T03:16:48.866Z,100
2023-11-20T03:21:48.547Z,100
2023-11-20T03:26:48.008Z,100
2023-11-20T03:31:48.130Z,100
2023-11-20T03:36:48.022Z,100
2023-11-20T03:41:48.089Z,100
2023-11-20T03:46:48.092Z,100
2023-11-20T03:51:48.101Z,100
2023-11-20T03:56:48.076Z,100
2023-11-20T04:01:48.107Z,100
2023-11-20T04:06:48.043Z,100
2023-11-20T04:11:48.125Z,100
2023-11-20T04:16:53.034Z,100
2023-11-20T04:21:48.973Z,100
2023-11-20T04:26:48.714Z,100
2023-11-20T04:31:48.673Z,100
2023-11-20T04:36:48.465Z,100
2023-11-20T04:41:48.377Z,100
2023-11-20T04:46:50.575Z,100
2023-11-20T04:51:49.605Z,100
2023-11-20T04:56:49.198Z,100
2023-11-20T05:01:48.605Z,100
2023-11-20T05:06:48.674Z,100
2023-11-20T05:11:49.974Z,100
2023-11-20T05:16:48.401Z,100
2023-11-20T05:21:48.958Z,100
2023-11-20T05:26:48.235Z,100
2023-11-20T05:31:48.360Z,100
2023-11-20T05:36:48.640Z,100
2023-11-20T05:41:48.636Z,100
2023-11-20T05:46:48.174Z,100
2023-11-20T05:51:48.463Z,100
2023-11-20T05:56:48.257Z,100
2023-11-20T06:01:48.678Z,100
2023-11-20T06:06:48.280Z,100
2023-11-20T06:11:50.461Z,100
2023-11-20T06:16:48.384Z,100
2023-11-20T06:21:53.160Z,100
2023-11-20T06:26:48.663Z,100
2023-11-20T06:31:48.375Z,100
2023-11-20T06:36:48.602Z,100
2023-11-20T06:41:48.546Z,100
2023-11-20T06:46:48.290Z,100
2023-11-20T06:51:49.249Z,100
2023-11-20T06:56:54.683Z,100
2023-11-20T07:01:51.805Z,100
2023-11-20T07:06:50.381Z,100
2023-11-20T07:11:48.572Z,100
2023-11-20T07:16:49.825Z,100
2023-11-20T07:21:48.893Z,100
2023-11-20T07:26:48.244Z,100
2023-11-20T07:31:48.465Z,100
2023-11-20T07:36:48.373Z,100
2023-11-20T07:41:48.243Z,100
2023-11-20T07:46:52.115Z,100
2023-11-20T07:51:48.500Z,100
2023-11-20T07:56:48.744Z,100
2023-11-20T08:01:48.359Z,100
2023-11-20T08:06:49.071Z,100
2023-11-20T08:11:48.761Z,100
2023-11-20T08:16:48.654Z,100
2023-11-20T08:21:48.306Z,100
2023-11-20T08:26:48.714Z,100
2023-11-20T08:31:48.397Z,100
2023-11-20T08:36:48.838Z,100
2023-11-20T08:41:48.282Z,100
2023-11-20T08:46:50.884Z,100
2023-11-20T08:51:55.915Z,100
2023-11-20T08:56:52.560Z,100
2023-11-20T09:01:49.204Z,100
2023-11-20T09:06:48.534Z,100
2023-11-20T09:11:50.991Z,100
2023-11-20T09:16:48.606Z,100
2023-11-20T09:21:48.445Z,100
2023-11-20T09:26:49.993Z,100
2023-11-20T09:31:49.040Z,100
2023-11-20T09:36:48.667Z,100
2023-11-20T09:41:48.869Z,100
2023-11-20T09:46:49.895Z,100
2023-11-20T09:51:50.045Z,100
2023-11-20T09:56:48.426Z,100
2023-11-20T10:01:49.226Z,100
2023-11-20T10:06:48.627Z,100
2023-11-20T10:11:52.517Z,100
2023-11-20T10:16:49.092Z,100
2023-11-20T10:21:51.402Z,100
2023-11-20T10:26:51.324Z,100
2023-11-20T10:31:52.180Z,100
2023-11-20T10:36:58.495Z,99.96191
2023-11-20T10:41:48.507Z,97.62305
2023-11-20T10:46:49.700Z,98.26563
2023-11-20T10:51:52.886Z,92.08984
2023-11-20T10:56:49.254Z,83.81445
2023-11-20T11:01:48.665Z,77.03027
2023-11-20T11:06:50.911Z,79.32422
2023-11-20T11:11:50.684Z,81.47168
2023-11-20T11:16:51.925Z,82.78711
2023-11-20T11:21:57.391Z,82.46387
2023-11-20T11:26:53.931Z,80.99805
2023-11-20T11:31:58.301Z,73.44824
2023-11-20T11:36:55.597Z,70.20703
2023-11-20T11:42:06.047Z,79.4375
2023-11-20T11:46:53.536Z,85.4834
2023-11-20T11:51:49.252Z,88.14844
2023-11-20T11:56:57.809Z,93.25098
2023-11-20T12:01:54.243Z,93.18652
2023-11-20T12:06:48.682Z,91.83398
2023-11-20T12:11:58.046Z,91.38672
2023-11-20T12:16:50.472Z,88.06445
2023-11-20T12:21:50.386Z,90.8418
2023-11-20T12:26:48.767Z,93.71387
2023-11-20T12:31:49.421Z,94.35059
2023-11-20T12:36:48.990Z,92.62109
2023-11-20T12:41:50.447Z,92.37402
2023-11-20T12:46:48.913Z,92.46582
2023-11-20T12:51:48.674Z,94.0498
2023-11-20T12:56:49.949Z,94.4043
2023-11-20T13:01:48.550Z,94.68066
2023-11-20T13:06:48.803Z,95.87793
2023-11-20T13:11:48.692Z,95.9375
2023-11-20T13:16:49.031Z,97.81445
2023-11-20T13:21:50.447Z,98.42773
2023-11-20T13:26:52.912Z,100
2023-11-20T13:31:50.359Z,100
2023-11-20T13:36:48.668Z,100
2023-11-20T13:41:48.953Z,100
2023-11-20T13:46:50.724Z,100
2023-11-20T13:51:48.559Z,100
2023-11-20T13:56:48.627Z,100
2023-11-20T14:01:49.005Z,100
2023-11-20T14:06:48.722Z,100
2023-11-20T14:11:48.657Z,96.01074
2023-11-20T14:16:48.692Z,94.39355
2023-11-20T14:21:48.654Z,92.34668
2023-11-20T14:26:48.638Z,91.02051
2023-11-20T14:31:49.736Z,93.12207
2023-11-20T14:36:48.720Z,94.56934
2023-11-20T14:41:48.713Z,95.11133
2023-11-20T14:46:48.771Z,97.89063
2023-11-20T14:51:48.856Z,99.77441
2023-11-20T14:56:48.706Z,100
2023-11-20T15:01:48.700Z,100
2023-11-20T15:06:48.681Z,100
2023-11-20T15:11:49.992Z,100
2023-11-20T15:16:48.676Z,100
2023-11-20T15:21:50.040Z,100
2023-11-20T15:26:50.288Z,100
2023-11-20T15:31:48.882Z,100
2023-11-20T15:36:48.645Z,100
2023-11-20T15:41:49.252Z,100
2023-11-20T15:46:52.027Z,100
2023-11-20T15:51:48.668Z,100
2023-11-20T15:56:53.376Z,100
2023-11-20T16:01:49.432Z,100
2023-11-20T16:06:48.738Z,100
2023-11-20T16:11:48.962Z,100
2023-11-20T16:16:52.729Z,100
2023-11-20T16:21:49.553Z,100
2023-11-20T16:26:48.998Z,100
2023-11-20T16:31:48.833Z,100
2023-11-20T16:36:49.015Z,100
2023-11-20T16:41:48.720Z,100
2023-11-20T16:46:48.777Z,100
2023-11-20T16:51:48.796Z,100
2023-11-20T16:56:49.354Z,100
2023-11-20T17:01:49.989Z,100
2023-11-20T17:06:48.690Z,100
2023-11-20T17:11:50.573Z,100
2023-11-20T17:16:49.044Z,100
2023-11-20T17:21:48.785Z,100
2023-11-20T17:26:49.028Z,100
2023-11-20T17:31:48.946Z,100
2023-11-20T17:36:49.165Z,100
2023-11-20T17:41:48.684Z,100
2023-11-20T17:46:50.083Z,100
2023-11-20T17:51:49.140Z,100
2023-11-20T17:56:50.710Z,100
2023-11-20T18:01:49.432Z,100
2023-11-20T18:06:51.544Z,100
2023-11-20T18:11:48.761Z,100
2023-11-20T18:16:48.797Z,100
2023-11-20T18:21:53.733Z,100
2023-11-20T18:26:50.063Z,100
2023-11-20T18:31:50.196Z,100
2023-11-20T18:36:48.693Z,100
2023-11-20T18:41:49.605Z,100
2023-11-20T18:46:48.936Z,100
2023-11-20T18:51:48.683Z,100
2023-11-20T18:56:48.741Z,100
2023-11-20T19:01:52.089Z,100
2023-11-20T19:06:48.664Z,100
2023-11-20T19:11:49.418Z,100
2023-11-20T19:16:48.793Z,100
2023-11-20T19:21:48.756Z,100
2023-11-20T19:26:48.746Z,100
2023-11-20T19:31:49.335Z,100
2023-11-20T19:36:48.772Z,100
2023-11-20T19:41:49.616Z,100
2023-11-20T19:46:48.787Z,100
2023-11-20T19:51:48.729Z,100
2023-11-20T19:56:49.193Z,100
2023-11-20T20:01:50.348Z,100
2023-11-20T20:06:49.295Z,100
2023-11-20T20:11:50.196Z,100
2023-11-20T20:16:49.505Z,100
2023-11-20T20:21:49.046Z,100
2023-11-20T20:26:48.744Z,100
2023-11-20T20:31:48.842Z,100
2023-11-20T20:36:48.757Z,100
2023-11-20T20:41:49.051Z,100
2023-11-20T20:46:49.059Z,100
2023-11-20T20:51:49.706Z,100
2023-11-20T20:56:49.285Z,100
2023-11-20T21:01:49.334Z,100
2023-11-20T21:06:48.841Z,100
2023-11-20T21:11:48.878Z,100
2023-11-20T21:16:49.449Z,100
2023-11-20T21:21:49.233Z,100
2023-11-20T21:26:48.930Z,100
2023-11-20T21:31:52.480Z,100
2023-11-20T21:36:49.754Z,100
2023-11-20T21:41:49.337Z,100
2023-11-20T21:46:49.678Z,100
2023-11-20T21:51:48.864Z,100
2023-11-20T21:56:48.912Z,100
2023-11-20T22:01:49.280Z,100
2023-11-20T22:06:48.861Z,100
2023-11-20T22:11:50.018Z,100
2023-11-20T22:16:48.936Z,100
2023-11-20T22:21:49.416Z,100
2023-11-20T22:26:48.924Z,100
2023-11-20T22:31:49.041Z,100
2023-11-20T22:36:48.867Z,100
2023-11-20T22:41:49.183Z,100
2023-11-20T22:46:48.991Z,100
2023-11-20T22:51:48.868Z,100
2023-11-20T22:56:48.944Z,100
2023-11-20T23:01:50.763Z,100
2023-11-20T23:06:48.930Z,100
2023-11-20T23:11:48.921Z,100
2023-11-20T23:16:48.949Z,100
2023-11-20T23:21:48.960Z,100
2023-11-20T23:26:48.889Z,100
2023-11-20T23:31:48.989Z,100
2023-11-20T23:36:49.004Z,100
2023-11-20T23:41:49.831Z,100
2023-11-20T23:46:49.553Z,100
2023-11-20T23:51:48.926Z,100
2023-11-20T23:56:49.260Z,100
